sensor_id;sensor_type;location;lat;lon;timestamp;temperature;humidity
15705;DHT22;7952;48.396;12.806;2023-07-31T00:00:47;19.40;52.70
15705;DHT22;7952;48.396;12.806;2023-07-31T00:54:49;18.60;53.10
15705;DHT22;7952;48.396;12.806;2023-07-31T01:01:53;18.50;53.10
15705;DHT22;7952;48.396;12.806;2023-07-31T01:05:09;18.40;53.10
15705;DHT22;7952;48.396;12.806;2023-07-31T01:11:38;18.40;53.00
15705;DHT22;7952;48.396;12.806;2023-07-31T01:31:31;18.30;53.00
15705;DHT22;7952;48.396;12.806;2023-07-31T01:41:33;18.30;52.90
15705;DHT22;7952;48.396;12.806;2023-07-31T02:18:44;18.40;52.90
15705;DHT22;7952;48.396;12.806;2023-07-31T02:21:40;18.40;52.90
15705;DHT22;7952;48.396;12.806;2023-07-31T02:48:01;18.40;52.70
15705;DHT22;7952;48.396;12.806;2023-07-31T02:54:06;18.40;52.80
15705;DHT22;7952;48.396;12.806;2023-07-31T03:14:37;18.20;52.90
15705;DHT22;7952;48.396;12.806;2023-07-31T03:17:45;18.10;52.90
15705;DHT22;7952;48.396;12.806;2023-07-31T03:20:34;18.10;53.00
15705;DHT22;7952;48.396;12.806;2023-07-31T03:29:36;18.00;53.00
15705;DHT22;7952;48.396;12.806;2023-07-31T03:32:05;18.00;53.00
15705;DHT22;7952;48.396;12.806;2023-07-31T03:52:03;17.90;53.00
15705;DHT22;7952;48.396;12.806;2023-07-31T03:59:02;17.90;53.00
15705;DHT22;7952;48.396;12.806;2023-07-31T04:05:31;17.90;53.10
15705;DHT22;7952;48.396;12.806;2023-07-31T04:16:13;17.90;53.10
15705;DHT22;7952;48.396;12.806;2023-07-31T04:27:48;18.40;53.40
15705;DHT22;7952;48.396;12.806;2023-07-31T04:31:36;18.90;53.40
15705;DHT22;7952;48.396;12.806;2023-07-31T04:48:48;22.30;52.00
15705;DHT22;7952;48.396;12.806;2023-07-31T04:54:07;23.30;51.60
15705;DHT22;7952;48.396;12.806;2023-07-31T05:00:14;24.20;51.10
15705;DHT22;7952;48.396;12.806;2023-07-31T05:02:40;24.70;50.80
15705;DHT22;7952;48.396;12.806;2023-07-31T05:05:06;25.00;50.70
15705;DHT22;7952;48.396;12.806;2023-07-31T05:07:37;25.30;50.50
15705;DHT22;7952;48.396;12.806;2023-07-31T05:10:12;25.50;50.20
15705;DHT22;7952;48.396;12.806;2023-07-31T05:12:39;25.60;49.70
15705;DHT22;7952;48.396;12.806;2023-07-31T05:15:05;25.60;50.00
15705;DHT22;7952;48.396;12.806;2023-07-31T05:17:31;25.80;50.20
15705;DHT22;7952;48.396;12.806;2023-07-31T05:19:57;26.10;50.10
15705;DHT22;7952;48.396;12.806;2023-07-31T05:22:23;26.50;50.00
15705;DHT22;7952;48.396;12.806;2023-07-31T05:24:49;26.90;49.90
15705;DHT22;7952;48.396;12.806;2023-07-31T05:27:37;27.30;49.60
15705;DHT22;7952;48.396;12.806;2023-07-31T05:30:09;27.80;49.30
15705;DHT22;7952;48.396;12.806;2023-07-31T05:32:35;28.20;48.90
15705;DHT22;7952;48.396;12.806;2023-07-31T05:35:01;28.50;48.50
15705;DHT22;7952;48.396;12.806;2023-07-31T05:37:27;28.80;48.30
15705;DHT22;7952;48.396;12.806;2023-07-31T05:40:08;29.00;48.10
15705;DHT22;7952;48.396;12.806;2023-07-31T05:42:34;29.30;48.00
15705;DHT22;7952;48.396;12.806;2023-07-31T05:45:19;29.60;47.90
15705;DHT22;7952;48.396;12.806;2023-07-31T05:47:45;29.90;47.70
15705;DHT22;7952;48.396;12.806;2023-07-31T05:50:29;30.20;47.50
15705;DHT22;7952;48.396;12.806;2023-07-31T05:53:08;30.50;47.30
15705;DHT22;7952;48.396;12.806;2023-07-31T05:55:43;30.90;47.10
15705;DHT22;7952;48.396;12.806;2023-07-31T05:58:09;31.20;46.80
15705;DHT22;7952;48.396;12.806;2023-07-31T06:00:35;31.40;46.60
15705;DHT22;7952;48.396;12.806;2023-07-31T06:03:01;31.70;46.40
15705;DHT22;7952;48.396;12.806;2023-07-31T06:05:26;31.90;46.30
15705;DHT22;7952;48.396;12.806;2023-07-31T06:07:54;32.20;46.10
15705;DHT22;7952;48.396;12.806;2023-07-31T06:10:20;32.40;45.90
15705;DHT22;7952;48.396;12.806;2023-07-31T06:12:46;32.60;45.80
15705;DHT22;7952;48.396;12.806;2023-07-31T06:15:11;32.80;45.50
15705;DHT22;7952;48.396;12.806;2023-07-31T06:17:37;33.00;45.40
15705;DHT22;7952;48.396;12.806;2023-07-31T06:20:03;33.10;45.20
15705;DHT22;7952;48.396;12.806;2023-07-31T06:22:32;33.30;45.20
15705;DHT22;7952;48.396;12.806;2023-07-31T06:24:58;33.30;45.10
15705;DHT22;7952;48.396;12.806;2023-07-31T06:27:35;33.50;45.00
15705;DHT22;7952;48.396;12.806;2023-07-31T06:30:08;33.60;44.90
15705;DHT22;7952;48.396;12.806;2023-07-31T06:32:57;33.70;44.80
15705;DHT22;7952;48.396;12.806;2023-07-31T06:35:25;33.90;44.70
15705;DHT22;7952;48.396;12.806;2023-07-31T06:37:57;33.90;44.40
15705;DHT22;7952;48.396;12.806;2023-07-31T06:40:36;33.70;44.30
15705;DHT22;7952;48.396;12.806;2023-07-31T06:43:06;33.40;44.40
15705;DHT22;7952;48.396;12.806;2023-07-31T06:45:35;33.00;44.70
15705;DHT22;7952;48.396;12.806;2023-07-31T06:48:02;32.50;45.00
15705;DHT22;7952;48.396;12.806;2023-07-31T06:50:30;32.10;45.40
15705;DHT22;7952;48.396;12.806;2023-07-31T06:52:56;31.70;45.70
15705;DHT22;7952;48.396;12.806;2023-07-31T06:55:22;31.40;46.10
15705;DHT22;7952;48.396;12.806;2023-07-31T06:57:50;31.10;46.40
15705;DHT22;7952;48.396;12.806;2023-07-31T07:00:17;30.90;46.70
15705;DHT22;7952;48.396;12.806;2023-07-31T07:02:43;30.70;46.70
15705;DHT22;7952;48.396;12.806;2023-07-31T07:05:09;30.50;46.90
15705;DHT22;7952;48.396;12.806;2023-07-31T07:07:35;30.30;47.00
15705;DHT22;7952;48.396;12.806;2023-07-31T07:10:02;30.00;47.10
15705;DHT22;7952;48.396;12.806;2023-07-31T07:12:38;29.80;47.30
15705;DHT22;7952;48.396;12.806;2023-07-31T07:15:10;29.50;47.40
15705;DHT22;7952;48.396;12.806;2023-07-31T07:17:39;29.30;47.60
15705;DHT22;7952;48.396;12.806;2023-07-31T07:20:05;29.10;47.80
15705;DHT22;7952;48.396;12.806;2023-07-31T07:22:31;28.90;48.00
15705;DHT22;7952;48.396;12.806;2023-07-31T07:25:00;28.90;48.20
15705;DHT22;7952;48.396;12.806;2023-07-31T07:27:28;29.00;48.20
15705;DHT22;7952;48.396;12.806;2023-07-31T07:30:10;29.00;48.00
15705;DHT22;7952;48.396;12.806;2023-07-31T07:32:35;29.10;47.80
15705;DHT22;7952;48.396;12.806;2023-07-31T07:35:01;29.10;47.50
15705;DHT22;7952;48.396;12.806;2023-07-31T07:37:27;29.10;47.50
15705;DHT22;7952;48.396;12.806;2023-07-31T07:39:57;29.10;47.50
15705;DHT22;7952;48.396;12.806;2023-07-31T07:42:23;29.10;47.40
15705;DHT22;7952;48.396;12.806;2023-07-31T07:44:56;29.00;47.40
15705;DHT22;7952;48.396;12.806;2023-07-31T07:47:30;28.90;47.50
15705;DHT22;7952;48.396;12.806;2023-07-31T07:49:56;28.90;47.60
15705;DHT22;7952;48.396;12.806;2023-07-31T07:52:30;28.90;47.60
15705;DHT22;7952;48.396;12.806;2023-07-31T07:55:35;28.90;47.50
15705;DHT22;7952;48.396;12.806;2023-07-31T07:58:10;28.90;47.40
15705;DHT22;7952;48.396;12.806;2023-07-31T08:01:07;28.90;47.30
15705;DHT22;7952;48.396;12.806;2023-07-31T08:06:43;29.10;47.20
15705;DHT22;7952;48.396;12.806;2023-07-31T08:09:09;29.30;47.00
15705;DHT22;7952;48.396;12.806;2023-07-31T08:11:35;29.40;46.70
15705;DHT22;7952;48.396;12.806;2023-07-31T08:14:10;29.50;46.60
15705;DHT22;7952;48.396;12.806;2023-07-31T08:16:35;29.50;46.90
15705;DHT22;7952;48.396;12.806;2023-07-31T08:19:04;29.60;46.40
15705;DHT22;7952;48.396;12.806;2023-07-31T08:21:33;29.50;46.30
15705;DHT22;7952;48.396;12.806;2023-07-31T08:24:07;29.50;46.40
15705;DHT22;7952;48.396;12.806;2023-07-31T08:26:33;29.40;46.30
15705;DHT22;7952;48.396;12.806;2023-07-31T08:28:59;29.50;46.30
15705;DHT22;7952;48.396;12.806;2023-07-31T08:31:55;29.60;46.20
15705;DHT22;7952;48.396;12.806;2023-07-31T08:34:23;29.80;46.10
15705;DHT22;7952;48.396;12.806;2023-07-31T08:36:49;30.00;45.90
15705;DHT22;7952;48.396;12.806;2023-07-31T08:39:15;30.10;45.70
15705;DHT22;7952;48.396;12.806;2023-07-31T08:42:30;30.30;45.60
15705;DHT22;7952;48.396;12.806;2023-07-31T08:44:47;30.40;45.30
15705;DHT22;7952;48.396;12.806;2023-07-31T08:47:54;30.60;45.20
15705;DHT22;7952;48.396;12.806;2023-07-31T08:50:20;30.70;45.00
15705;DHT22;7952;48.396;12.806;2023-07-31T08:52:47;30.80;44.80
15705;DHT22;7952;48.396;12.806;2023-07-31T08:55:14;30.80;44.50
15705;DHT22;7952;48.396;12.806;2023-07-31T08:58:01;30.70;44.60
15705;DHT22;7952;48.396;12.806;2023-07-31T09:00:27;30.50;44.70
15705;DHT22;7952;48.396;12.806;2023-07-31T09:03:03;30.30;44.90
15705;DHT22;7952;48.396;12.806;2023-07-31T09:06:02;30.20;45.10
15705;DHT22;7952;48.396;12.806;2023-07-31T09:08:43;30.10;45.20
15705;DHT22;7952;48.396;12.806;2023-07-31T09:11:39;29.90;45.40
15705;DHT22;7952;48.396;12.806;2023-07-31T09:14:17;29.80;45.50
15705;DHT22;7952;48.396;12.806;2023-07-31T09:19:57;29.60;45.80
15705;DHT22;7952;48.396;12.806;2023-07-31T09:22:34;29.60;45.90
15705;DHT22;7952;48.396;12.806;2023-07-31T09:28:30;29.70;45.90
15705;DHT22;7952;48.396;12.806;2023-07-31T09:31:14;29.80;45.80
15705;DHT22;7952;48.396;12.806;2023-07-31T09:34:02;29.80;45.60
15705;DHT22;7952;48.396;12.806;2023-07-31T09:36:50;29.70;45.60
15705;DHT22;7952;48.396;12.806;2023-07-31T09:39:19;29.70;45.70
15705;DHT22;7952;48.396;12.806;2023-07-31T09:42:13;29.70;45.70
15705;DHT22;7952;48.396;12.806;2023-07-31T09:45:07;29.70;45.60
15705;DHT22;7952;48.396;12.806;2023-07-31T09:47:35;29.70;45.70
15705;DHT22;7952;48.396;12.806;2023-07-31T09:50:01;29.70;45.70
15705;DHT22;7952;48.396;12.806;2023-07-31T09:55:56;29.70;45.60
15705;DHT22;7952;48.396;12.806;2023-07-31T09:58:35;29.70;45.60
15705;DHT22;7952;48.396;12.806;2023-07-31T10:01:08;29.70;45.60
15705;DHT22;7952;48.396;12.806;2023-07-31T10:07:21;29.50;45.70
15705;DHT22;7952;48.396;12.806;2023-07-31T10:09:55;29.30;45.70
15705;DHT22;7952;48.396;12.806;2023-07-31T10:12:23;29.20;45.90
15705;DHT22;7952;48.396;12.806;2023-07-31T10:15:14;29.00;46.00
15705;DHT22;7952;48.396;12.806;2023-07-31T10:17:43;28.90;46.10
15705;DHT22;7952;48.396;12.806;2023-07-31T10:20:10;28.80;46.30
15705;DHT22;7952;48.396;12.806;2023-07-31T10:22:36;28.60;46.20
15705;DHT22;7952;48.396;12.806;2023-07-31T10:25:08;28.50;46.30
15705;DHT22;7952;48.396;12.806;2023-07-31T10:27:35;28.50;46.50
15705;DHT22;7952;48.396;12.806;2023-07-31T10:30:05;28.40;46.60
15705;DHT22;7952;48.396;12.806;2023-07-31T10:32:40;28.40;46.70
15705;DHT22;7952;48.396;12.806;2023-07-31T10:35:19;28.40;46.70
15705;DHT22;7952;48.396;12.806;2023-07-31T10:38:11;28.40;46.60
15705;DHT22;7952;48.396;12.806;2023-07-31T10:40:40;28.40;46.60
15705;DHT22;7952;48.396;12.806;2023-07-31T10:43:11;28.30;46.60
15705;DHT22;7952;48.396;12.806;2023-07-31T10:46:01;28.30;46.60
15705;DHT22;7952;48.396;12.806;2023-07-31T10:48:34;28.40;46.70
15705;DHT22;7952;48.396;12.806;2023-07-31T10:51:09;28.40;46.60
15705;DHT22;7952;48.396;12.806;2023-07-31T10:53:44;28.40;46.50
15705;DHT22;7952;48.396;12.806;2023-07-31T10:56:13;28.30;46.50
15705;DHT22;7952;48.396;12.806;2023-07-31T10:58:47;28.30;46.80
15705;DHT22;7952;48.396;12.806;2023-07-31T11:01:52;28.40;46.80
15705;DHT22;7952;48.396;12.806;2023-07-31T11:04:32;28.60;46.60
15705;DHT22;7952;48.396;12.806;2023-07-31T11:07:02;28.70;46.40
15705;DHT22;7952;48.396;12.806;2023-07-31T11:09:51;28.70;46.20
15705;DHT22;7952;48.396;12.806;2023-07-31T11:12:17;28.70;46.20
15705;DHT22;7952;48.396;12.806;2023-07-31T11:14:59;28.70;46.30
15705;DHT22;7952;48.396;12.806;2023-07-31T11:17:44;28.60;46.20
15705;DHT22;7952;48.396;12.806;2023-07-31T11:20:42;28.60;46.30
15705;DHT22;7952;48.396;12.806;2023-07-31T11:23:20;28.60;46.20
15705;DHT22;7952;48.396;12.806;2023-07-31T11:26:17;28.60;46.30
15705;DHT22;7952;48.396;12.806;2023-07-31T11:28:55;28.50;46.30
15705;DHT22;7952;48.396;12.806;2023-07-31T11:31:21;28.50;46.40
15705;DHT22;7952;48.396;12.806;2023-07-31T11:34:12;28.50;46.40
15705;DHT22;7952;48.396;12.806;2023-07-31T11:36:55;28.50;46.40
15705;DHT22;7952;48.396;12.806;2023-07-31T11:39:21;28.50;46.10
15705;DHT22;7952;48.396;12.806;2023-07-31T11:41:47;28.50;46.10
15705;DHT22;7952;48.396;12.806;2023-07-31T11:44:13;28.50;46.20
15705;DHT22;7952;48.396;12.806;2023-07-31T11:46:42;28.50;46.30
15705;DHT22;7952;48.396;12.806;2023-07-31T11:49:11;28.50;46.30
15705;DHT22;7952;48.396;12.806;2023-07-31T11:51:41;28.60;46.30
15705;DHT22;7952;48.396;12.806;2023-07-31T11:54:07;28.60;46.30
15705;DHT22;7952;48.396;12.806;2023-07-31T11:56:42;28.60;46.30
15705;DHT22;7952;48.396;12.806;2023-07-31T11:59:19;28.60;46.20
15705;DHT22;7952;48.396;12.806;2023-07-31T12:01:49;28.70;46.30
15705;DHT22;7952;48.396;12.806;2023-07-31T12:04:36;28.70;46.20
15705;DHT22;7952;48.396;12.806;2023-07-31T12:07:24;28.90;46.10
15705;DHT22;7952;48.396;12.806;2023-07-31T12:10:22;29.00;46.00
15705;DHT22;7952;48.396;12.806;2023-07-31T12:13:05;29.10;46.00
15705;DHT22;7952;48.396;12.806;2023-07-31T12:16:14;29.20;45.80
15705;DHT22;7952;48.396;12.806;2023-07-31T12:18:49;29.30;45.60
15705;DHT22;7952;48.396;12.806;2023-07-31T12:21:19;29.30;45.50
15705;DHT22;7952;48.396;12.806;2023-07-31T12:23:45;29.30;45.50
15705;DHT22;7952;48.396;12.806;2023-07-31T12:26:37;29.20;45.50
15705;DHT22;7952;48.396;12.806;2023-07-31T12:29:37;29.20;45.60
15705;DHT22;7952;48.396;12.806;2023-07-31T12:35:19;29.20;45.60
15705;DHT22;7952;48.396;12.806;2023-07-31T12:37:58;29.20;45.60
15705;DHT22;7952;48.396;12.806;2023-07-31T12:40:44;29.20;45.60
15705;DHT22;7952;48.396;12.806;2023-07-31T12:49:57;29.20;45.70
15705;DHT22;7952;48.396;12.806;2023-07-31T12:53:11;29.20;45.60
15705;DHT22;7952;48.396;12.806;2023-07-31T12:59:05;29.20;45.50
15705;DHT22;7952;48.396;12.806;2023-07-31T13:01:39;29.20;45.50
15705;DHT22;7952;48.396;12.806;2023-07-31T13:07:06;29.20;45.40
15705;DHT22;7952;48.396;12.806;2023-07-31T13:09:35;29.20;45.50
15705;DHT22;7952;48.396;12.806;2023-07-31T13:15:07;29.00;45.30
15705;DHT22;7952;48.396;12.806;2023-07-31T13:17:33;28.90;45.30
15705;DHT22;7952;48.396;12.806;2023-07-31T13:23:35;28.80;45.50
15705;DHT22;7952;48.396;12.806;2023-07-31T13:26:06;28.70;45.50
15705;DHT22;7952;48.396;12.806;2023-07-31T13:28:37;28.60;45.50
15705;DHT22;7952;48.396;12.806;2023-07-31T13:31:12;28.60;45.60
15705;DHT22;7952;48.396;12.806;2023-07-31T13:33:58;28.50;45.70
15705;DHT22;7952;48.396;12.806;2023-07-31T13:36:23;28.50;45.80
15705;DHT22;7952;48.396;12.806;2023-07-31T13:38:49;28.50;45.80
15705;DHT22;7952;48.396;12.806;2023-07-31T13:41:21;28.60;45.80
15705;DHT22;7952;48.396;12.806;2023-07-31T13:43:50;28.70;45.70
15705;DHT22;7952;48.396;12.806;2023-07-31T13:46:42;28.70;45.60
15705;DHT22;7952;48.396;12.806;2023-07-31T13:49:08;28.80;45.60
15705;DHT22;7952;48.396;12.806;2023-07-31T13:51:47;28.80;45.60
15705;DHT22;7952;48.396;12.806;2023-07-31T13:57:25;29.00;45.50
15705;DHT22;7952;48.396;12.806;2023-07-31T13:59:54;29.10;45.30
15705;DHT22;7952;48.396;12.806;2023-07-31T14:06:38;29.20;45.20
15705;DHT22;7952;48.396;12.806;2023-07-31T14:09:07;29.20;45.20
15705;DHT22;7952;48.396;12.806;2023-07-31T14:11:41;29.30;45.20
15705;DHT22;7952;48.396;12.806;2023-07-31T14:14:09;29.40;45.20
15705;DHT22;7952;48.396;12.806;2023-07-31T14:16:43;29.50;45.20
15705;DHT22;7952;48.396;12.806;2023-07-31T14:22:08;29.60;45.00
15705;DHT22;7952;48.396;12.806;2023-07-31T14:24:40;29.70;45.00
15705;DHT22;7952;48.396;12.806;2023-07-31T14:27:09;29.70;44.80
15705;DHT22;7952;48.396;12.806;2023-07-31T14:29:44;29.80;44.80
15705;DHT22;7952;48.396;12.806;2023-07-31T14:32:33;29.70;44.80
15705;DHT22;7952;48.396;12.806;2023-07-31T14:35:05;29.70;44.90
15705;DHT22;7952;48.396;12.806;2023-07-31T14:37:53;29.70;44.90
15705;DHT22;7952;48.396;12.806;2023-07-31T14:40:27;29.80;44.90
15705;DHT22;7952;48.396;12.806;2023-07-31T14:42:56;29.70;44.80
15705;DHT22;7952;48.396;12.806;2023-07-31T14:48:27;29.70;44.80
15705;DHT22;7952;48.396;12.806;2023-07-31T14:54:21;29.60;44.90
15705;DHT22;7952;48.396;12.806;2023-07-31T14:56:49;29.50;44.80
15705;DHT22;7952;48.396;12.806;2023-07-31T14:59:15;29.50;44.90
15705;DHT22;7952;48.396;12.806;2023-07-31T15:01:41;29.40;44.90
15705;DHT22;7952;48.396;12.806;2023-07-31T15:04:29;29.30;44.90
15705;DHT22;7952;48.396;12.806;2023-07-31T15:06:55;29.20;45.10
15705;DHT22;7952;48.396;12.806;2023-07-31T15:09:21;29.20;45.10
15705;DHT22;7952;48.396;12.806;2023-07-31T15:12:29;29.10;45.00
15705;DHT22;7952;48.396;12.806;2023-07-31T15:15:14;29.00;45.00
15705;DHT22;7952;48.396;12.806;2023-07-31T15:17:43;28.90;44.90
15705;DHT22;7952;48.396;12.806;2023-07-31T15:26:17;28.70;45.00
15705;DHT22;7952;48.396;12.806;2023-07-31T15:28:50;28.60;45.10
15705;DHT22;7952;48.396;12.806;2023-07-31T15:31:23;28.60;45.00
15705;DHT22;7952;48.396;12.806;2023-07-31T15:33:55;28.50;45.00
15705;DHT22;7952;48.396;12.806;2023-07-31T15:36:21;28.40;44.90
15705;DHT22;7952;48.396;12.806;2023-07-31T15:38:47;28.30;45.50
15705;DHT22;7952;48.396;12.806;2023-07-31T15:41:16;28.20;45.00
15705;DHT22;7952;48.396;12.806;2023-07-31T15:43:42;28.10;45.00
15705;DHT22;7952;48.396;12.806;2023-07-31T15:46:18;28.00;45.10
15705;DHT22;7952;48.396;12.806;2023-07-31T15:48:44;28.00;45.20
15705;DHT22;7952;48.396;12.806;2023-07-31T15:51:10;27.90;45.20
15705;DHT22;7952;48.396;12.806;2023-07-31T15:53:36;27.80;45.20
15705;DHT22;7952;48.396;12.806;2023-07-31T15:56:02;27.80;45.30
15705;DHT22;7952;48.396;12.806;2023-07-31T15:58:28;27.70;45.20
15705;DHT22;7952;48.396;12.806;2023-07-31T16:00:54;27.70;45.20
15705;DHT22;7952;48.396;12.806;2023-07-31T16:03:20;27.60;45.20
15705;DHT22;7952;48.396;12.806;2023-07-31T16:05:47;27.60;45.20
15705;DHT22;7952;48.396;12.806;2023-07-31T16:08:18;27.50;45.20
15705;DHT22;7952;48.396;12.806;2023-07-31T16:10:53;27.50;45.40
15705;DHT22;7952;48.396;12.806;2023-07-31T16:13:37;27.40;45.40
15705;DHT22;7952;48.396;12.806;2023-07-31T16:16:36;27.30;45.40
15705;DHT22;7952;48.396;12.806;2023-07-31T16:19:15;27.20;45.40
15705;DHT22;7952;48.396;12.806;2023-07-31T16:21:48;27.10;45.40
15705;DHT22;7952;48.396;12.806;2023-07-31T16:24:50;27.10;45.50
15705;DHT22;7952;48.396;12.806;2023-07-31T16:27:58;27.10;45.60
15705;DHT22;7952;48.396;12.806;2023-07-31T16:30:26;27.00;45.50
15705;DHT22;7952;48.396;12.806;2023-07-31T16:36:32;27.00;45.60
15705;DHT22;7952;48.396;12.806;2023-07-31T16:39:25;27.00;45.60
15705;DHT22;7952;48.396;12.806;2023-07-31T16:42:35;27.00;45.70
15705;DHT22;7952;48.396;12.806;2023-07-31T16:45:04;26.90;45.60
15705;DHT22;7952;48.396;12.806;2023-07-31T16:47:39;26.90;45.70
15705;DHT22;7952;48.396;12.806;2023-07-31T16:50:28;26.90;45.70
15705;DHT22;7952;48.396;12.806;2023-07-31T16:53:09;26.90;45.70
15705;DHT22;7952;48.396;12.806;2023-07-31T16:55:46;26.90;45.80
15705;DHT22;7952;48.396;12.806;2023-07-31T16:58:13;26.80;45.70
15705;DHT22;7952;48.396;12.806;2023-07-31T17:00:38;26.80;45.80
15705;DHT22;7952;48.396;12.806;2023-07-31T17:03:04;26.80;45.80
15705;DHT22;7952;48.396;12.806;2023-07-31T17:05:42;26.70;45.80
15705;DHT22;7952;48.396;12.806;2023-07-31T17:08:11;26.70;45.80
15705;DHT22;7952;48.396;12.806;2023-07-31T17:10:39;26.60;45.80
15705;DHT22;7952;48.396;12.806;2023-07-31T17:13:05;26.60;45.90
15705;DHT22;7952;48.396;12.806;2023-07-31T17:25:16;26.40;46.10
15705;DHT22;7952;48.396;12.806;2023-07-31T17:28:29;26.30;46.10
15705;DHT22;7952;48.396;12.806;2023-07-31T17:31:14;26.30;46.20
15705;DHT22;7952;48.396;12.806;2023-07-31T17:33:40;26.20;46.20
15705;DHT22;7952;48.396;12.806;2023-07-31T17:36:13;26.10;46.20
15705;DHT22;7952;48.396;12.806;2023-07-31T17:42:09;26.10;46.30
15705;DHT22;7952;48.396;12.806;2023-07-31T17:55:22;25.80;46.40
15705;DHT22;7952;48.396;12.806;2023-07-31T17:58:23;25.70;46.40
15705;DHT22;7952;48.396;12.806;2023-07-31T18:00:55;25.70;46.50
15705;DHT22;7952;48.396;12.806;2023-07-31T18:07:38;25.60;46.60
15705;DHT22;7952;48.396;12.806;2023-07-31T18:12:59;25.40;46.60
15705;DHT22;7952;48.396;12.806;2023-07-31T18:15:30;25.30;46.60
15705;DHT22;7952;48.396;12.806;2023-07-31T18:17:59;25.30;46.80
15705;DHT22;7952;48.396;12.806;2023-07-31T18:20:35;25.20;46.70
15705;DHT22;7952;48.396;12.806;2023-07-31T18:23:01;25.10;46.70
15705;DHT22;7952;48.396;12.806;2023-07-31T18:25:30;25.10;46.90
15705;DHT22;7952;48.396;12.806;2023-07-31T18:27:59;25.00;46.90
15705;DHT22;7952;48.396;12.806;2023-07-31T18:30:28;25.00;47.00
15705;DHT22;7952;48.396;12.806;2023-07-31T18:32:55;24.90;47.00
15705;DHT22;7952;48.396;12.806;2023-07-31T18:35:20;24.80;47.00
15705;DHT22;7952;48.396;12.806;2023-07-31T18:37:55;24.80;47.00
15705;DHT22;7952;48.396;12.806;2023-07-31T18:40:21;24.70;47.10
15705;DHT22;7952;48.396;12.806;2023-07-31T18:42:47;24.60;47.00
15705;DHT22;7952;48.396;12.806;2023-07-31T18:45:13;24.60;47.10
15705;DHT22;7952;48.396;12.806;2023-07-31T18:47:39;24.50;47.70
15705;DHT22;7952;48.396;12.806;2023-07-31T18:50:06;24.40;47.10
15705;DHT22;7952;48.396;12.806;2023-07-31T18:52:32;24.40;47.20
15705;DHT22;7952;48.396;12.806;2023-07-31T18:55:19;24.30;47.20
15705;DHT22;7952;48.396;12.806;2023-07-31T18:58:02;24.20;47.20
15705;DHT22;7952;48.396;12.806;2023-07-31T19:00:31;24.20;47.40
15705;DHT22;7952;48.396;12.806;2023-07-31T19:03:05;24.10;47.40
15705;DHT22;7952;48.396;12.806;2023-07-31T19:05:31;24.00;47.40
15705;DHT22;7952;48.396;12.806;2023-07-31T19:14:14;23.80;47.50
15705;DHT22;7952;48.396;12.806;2023-07-31T19:16:43;23.70;47.50
15705;DHT22;7952;48.396;12.806;2023-07-31T19:19:20;23.60;47.50
15705;DHT22;7952;48.396;12.806;2023-07-31T19:21:49;23.60;47.60
15705;DHT22;7952;48.396;12.806;2023-07-31T19:24:15;23.60;47.70
15705;DHT22;7952;48.396;12.806;2023-07-31T19:26:56;23.50;47.70
15705;DHT22;7952;48.396;12.806;2023-07-31T19:32:27;23.40;47.80
15705;DHT22;7952;48.396;12.806;2023-07-31T19:35:01;23.40;47.90
15705;DHT22;7952;48.396;12.806;2023-07-31T19:37:59;23.30;47.80
15705;DHT22;7952;48.396;12.806;2023-07-31T19:40:28;23.20;47.80
15705;DHT22;7952;48.396;12.806;2023-07-31T19:43:16;23.20;47.90
15705;DHT22;7952;48.396;12.806;2023-07-31T19:46:02;23.10;47.90
15705;DHT22;7952;48.396;12.806;2023-07-31T19:49:02;23.10;47.90
15705;DHT22;7952;48.396;12.806;2023-07-31T19:55:34;23.00;48.00
15705;DHT22;7952;48.396;12.806;2023-07-31T19:59:13;22.90;47.90
15705;DHT22;7952;48.396;12.806;2023-07-31T20:05:30;22.90;48.10
15705;DHT22;7952;48.396;12.806;2023-07-31T20:14:27;22.80;48.20
15705;DHT22;7952;48.396;12.806;2023-07-31T20:16:52;22.70;48.10
15705;DHT22;7952;48.396;12.806;2023-07-31T20:19:28;22.70;48.20
15705;DHT22;7952;48.396;12.806;2023-07-31T20:22:02;22.70;48.10
15705;DHT22;7952;48.396;12.806;2023-07-31T20:25:09;22.70;48.10
15705;DHT22;7952;48.396;12.806;2023-07-31T20:27:38;22.70;48.20
15705;DHT22;7952;48.396;12.806;2023-07-31T20:30:32;22.60;48.20
15705;DHT22;7952;48.396;12.806;2023-07-31T20:37:15;22.50;48.20
15705;DHT22;7952;48.396;12.806;2023-07-31T20:50:46;22.30;48.20
15705;DHT22;7952;48.396;12.806;2023-07-31T20:57:35;22.20;48.30
15705;DHT22;7952;48.396;12.806;2023-07-31T21:03:39;22.10;48.40
15705;DHT22;7952;48.396;12.806;2023-07-31T21:06:24;22.10;48.50
15705;DHT22;7952;48.396;12.806;2023-07-31T21:09:02;22.00;48.40
15705;DHT22;7952;48.396;12.806;2023-07-31T21:11:29;22.00;48.40
15705;DHT22;7952;48.396;12.806;2023-07-31T21:14:01;22.00;48.50
15705;DHT22;7952;48.396;12.806;2023-07-31T21:16:50;22.00;48.50
15705;DHT22;7952;48.396;12.806;2023-07-31T21:19:41;21.90;48.40
15705;DHT22;7952;48.396;12.806;2023-07-31T21:22:10;21.90;48.40
15705;DHT22;7952;48.396;12.806;2023-07-31T21:27:41;21.90;48.50
15705;DHT22;7952;48.396;12.806;2023-07-31T21:30:07;21.80;48.50
15705;DHT22;7952;48.396;12.806;2023-07-31T21:32:33;21.80;48.50
15705;DHT22;7952;48.396;12.806;2023-07-31T21:34:59;21.80;48.50
15705;DHT22;7952;48.396;12.806;2023-07-31T21:37:31;21.80;48.50
15705;DHT22;7952;48.396;12.806;2023-07-31T21:44:42;21.70;48.50
15705;DHT22;7952;48.396;12.806;2023-07-31T21:55:09;21.60;48.50
15705;DHT22;7952;48.396;12.806;2023-07-31T22:05:15;21.70;48.70
15705;DHT22;7952;48.396;12.806;2023-07-31T22:08:26;21.70;48.60
15705;DHT22;7952;48.396;12.806;2023-07-31T22:14:32;21.70;48.60
15705;DHT22;7952;48.396;12.806;2023-07-31T22:16:58;21.70;48.50
15705;DHT22;7952;48.396;12.806;2023-07-31T22:19:24;21.80;48.60
15705;DHT22;7952;48.396;12.806;2023-07-31T22:21:53;21.80;48.60
15705;DHT22;7952;48.396;12.806;2023-07-31T22:24:19;21.80;48.50
15705;DHT22;7952;48.396;12.806;2023-07-31T22:26:45;21.80;48.50
15705;DHT22;7952;48.396;12.806;2023-07-31T22:29:20;21.90;48.50
15705;DHT22;7952;48.396;12.806;2023-07-31T22:31:46;21.90;48.50
15705;DHT22;7952;48.396;12.806;2023-07-31T22:34:12;21.90;48.40
15705;DHT22;7952;48.396;12.806;2023-07-31T22:36:38;22.00;48.50
15705;DHT22;7952;48.396;12.806;2023-07-31T22:39:09;22.00;48.50
15705;DHT22;7952;48.396;12.806;2023-07-31T22:41:36;22.00;48.50
15705;DHT22;7952;48.396;12.806;2023-07-31T22:44:05;22.00;48.50
15705;DHT22;7952;48.396;12.806;2023-07-31T22:46:42;22.00;48.50
15705;DHT22;7952;48.396;12.806;2023-07-31T22:49:17;22.00;48.50
15705;DHT22;7952;48.396;12.806;2023-07-31T22:51:49;22.00;48.50
15705;DHT22;7952;48.396;12.806;2023-07-31T22:54:17;22.00;49.10
15705;DHT22;7952;48.396;12.806;2023-07-31T22:57:05;22.00;48.50
15705;DHT22;7952;48.396;12.806;2023-07-31T22:59:42;22.00;48.40
15705;DHT22;7952;48.396;12.806;2023-07-31T23:02:07;22.00;48.40